Fresno, CA

11:41 PM PDT en Septiembre 01, 2014 (GMT -0700)
Clovis California | Change Station
CLOSE
Current Station
Estación meteorológica personal
Location: Clovis, CA
Altura: 352 ft
Estaciones meteorológicas cercanas

Alt 352 ft 36.86 °N, 119.73 °W | Updated 4 seconds ago

Clear
Despejado
73.9 ° F
Sensación térmica 77 ° F
N
0.0
Viento Variable Viento desde Norte
Gusts 0.0 mph

Hoy
Alta -- | Baja -- ° F
--% Posibilidad de precipitaciones
Ayer
Alta -- | Baja -- ° F
Precip. -- pul
6:30 AM 7:27 PM
Creciente, 48% visible
Presión 29.74 pul
Visibilidad 10.0 Millas
Nubes Despejado
Índice de calor 77 ° F
Punto de rocío 58 ° F
Humedad 57%
Precipitaciones 0.00 pul
Espesor de la nieve No disponible.
UV 0.0 de una escala de 12
Polen 9.20 de una escala de 12
Calidad del aire No disponible.
Flu Activity No disponible.
METAR KFAT 020553Z 00000KT 10SM CLR 29/12 A2975 RMK AO2 SLP071 T02940117 10372 20294 51010

More Conditions Fewer Conditions

Presión 29.74 pul
Visibilidad 10.0 Millas
Nubes Despejado
Índice de calor 77 ° F
Punto de rocío 58 ° F
Humedad 57%
Precipitaciones 0.00 pul
Espesor de la nieve No disponible.
UV 0.0 de una escala de 12
Polen 9.20 de una escala de 12
Calidad del aire No disponible.
Flu Activity No disponible.
METAR KFAT 020553Z 00000KT 10SM CLR 29/12 A2975 RMK AO2 SLP071 T02940117 10372 20294 51010

More Conditions Fewer Conditions

10-Day Weather Forecast

Almanac

Astronomía

Sep. 01, 2014 Salida Puesta
Hora real 6:30 AM PDT 7:27 PM PDT
Crepúsculo civil 6:03 AM PDT 7:53 PM PDT
Crepúsculo náutico 5:32 AM PDT 8:25 PM PDT
Crepúsculo astronómico 4:59 AM PDT 8:57 PM PDT
Luna 1:10 PM PDT (9/1) 11:43 PM PDT (9/1)
Horas de luz 13h 50m
Horas de luz
12h 57m
Tomorrow will be 2m 15s shorter.
Creciente, 48% of the Moon is Illuminated
Sep 2
Creciente
Sep 2
Cuarto creciente
Sep 8
Luna llena
Sep 15
Cuarto menguante
Sep 24
Nueva

Community

WunderPhotos

Upload Photos

1,749,589 ¡fotos cargadas!

WunderBlogs® & News

Nearby

Calidad del aire

  Calidad del aire Índice AQ Contaminante
Lunes Buena
PM2.5
Martes Moderada
PM2.5
Miércoles Moderada
PM2.5
Jueves Moderada
PM2.5
Viernes Buena
PM2.5
Sábado Moderada
PM2.5

Grosos de nieve

Estación Profundido Altura
Leavitt Lake 0 in 9400 ft
Leavitt Meadows 0 in 7200 ft
Summit Meadow 0 in 9122 ft
Ebbetts Pass 0 in 8700 ft
Blue Lakes 0 in 8000 ft

Actividad de terremotos

Ciudad Distance Mag. Tiempo y dato
Gilroy, California 92 Millas 3.5 9:10 AM PDT
2014-09-01
Gonzales, California 81 Millas 2.7 9:48 PM PDT
2014-08-30
Magnitud mínima muestra es 2,5.

Temperaturas de aguas costeras

Lugar Temperatura
Sin partes meteorológicos de las estaciones

Estaciones meteorológicas cercanas